Sirena 3 — WDD7469 — position and weather

sailwx.info

Track history (hours):
 
Tides and Currents Weather Stations Pressure Air Temp Water Temp Dewpoint Dewpoint Depression Visibility Wind Speed Wind Dir Waves Ship Positions

Sirena 3

Owner: Loeb, Steven, Stamford, CT. More information available from US FCC via Universal Licensing System and Coast Guard Vessel Documentation Center.

Last reported at 2017-May-07 15:18 UTC. Time now 2017-Jul-23 16:42 UTC.
Position N 41°11' W 072°42'.
Warning: this ship's position is months out of date.

Length 18 m.

Type: Sailing vessel. MMSI: 367186880.

Date/timePositionNaut miles runAvg speedWind from/ knotsBaromVisibWave heightAir tempDewpointWater temp
2017-May-07 15:18N 41°11' W 072°42'2 7.4
2017-May-07 15:00N 41°12' W 072°39'7 6.6
2017-May-07 14:00N 41°14' W 072°31'3 5.5
2017-May-07 13:30N 41°15' W 072°28'1 2.4
2017-May-07 12:58N 41°16' W 072°29'  
2017-May-01 21:23N 41°16' W 072°29'0 0.0
2017-May-01 20:59N 41°16' W 072°29'0 0.0
2017-May-01 20:28N 41°16' W 072°29'1 1.8
2017-May-01 20:00N 41°16' W 072°28'2 3.3
2017-May-01 19:30N 41°15' W 072°26'2 3.5
2017-May-01 19:00N 41°16' W 072°28'1 1.4
2017-May-01 18:26N 41°16' W 072°29'0 0.0
2017-Apr-30 19:22N 41°16' W 072°29'0 0.0
2017-Apr-30 18:34N 41°16' W 072°29'0 0.0
2017-Apr-30 18:28N 41°16' W 072°29'0 0.0
2017-Apr-30 17:52N 41°16' W 072°29'0 0.0
2017-Apr-30 17:28N 41°16' W 072°29'0 0.0
2017-Apr-30 16:58N 41°16' W 072°29'0 0.0
2017-Apr-30 16:28N 41°16' W 072°29'0 0.0
2017-Apr-30 15:55N 41°16' W 072°29'  
Track history (hours):
 
Tides and Currents Weather Stations Pressure Air Temp Water Temp Dewpoint Dewpoint Depression Visibility Wind Speed Wind Dir Waves Ship Positions

Sirena 3

Owner: Loeb, Steven, Stamford, CT. More information available from US FCC via Universal Licensing System and Coast Guard Vessel Documentation Center.

Last reported at 2017-May-07 15:18 UTC. Time now 2017-Jul-23 16:42 UTC.
Position N 41°11' W 072°42'.
Warning: this ship's position is months out of date.

Length 18 m.

Type: Sailing vessel. MMSI: 367186880.

Date/timePositionNaut miles runAvg speedWind from/ knotsBaromVisibWave heightAir tempDewpointWater temp
2017-May-07 15:18N 41°11' W 072°42'2 7.4
2017-May-07 15:00N 41°12' W 072°39'7 6.6
2017-May-07 14:00N 41°14' W 072°31'3 5.5
2017-May-07 13:30N 41°15' W 072°28'1 2.4
2017-May-07 12:58N 41°16' W 072°29'  
2017-May-01 21:23N 41°16' W 072°29'0 0.0
2017-May-01 20:59N 41°16' W 072°29'0 0.0
2017-May-01 20:28N 41°16' W 072°29'1 1.8
2017-May-01 20:00N 41°16' W 072°28'2 3.3
2017-May-01 19:30N 41°15' W 072°26'2 3.5
2017-May-01 19:00N 41°16' W 072°28'1 1.4
2017-May-01 18:26N 41°16' W 072°29'0 0.0
2017-Apr-30 19:22N 41°16' W 072°29'0 0.0
2017-Apr-30 18:34N 41°16' W 072°29'0 0.0
2017-Apr-30 18:28N 41°16' W 072°29'0 0.0
2017-Apr-30 17:52N 41°16' W 072°29'0 0.0
2017-Apr-30 17:28N 41°16' W 072°29'0 0.0
2017-Apr-30 16:58N 41°16' W 072°29'0 0.0
2017-Apr-30 16:28N 41°16' W 072°29'0 0.0
2017-Apr-30 15:55N 41°16' W 072°29'  

Dump ship's entire track history